X  Cerrar Datos meteorológicos de aviación METAR     EDDM Munich Airport
Temperatura
-4°C Temperatura
-5°C Punto de rocío
93% Humedad



Viento
2 KM/H
1 MPH
0 M/S
1 NUDO



Calma
N
Condiciones actuales

Parcialmente nublado Parcialmente nublado
Presión 1035.92 (hPa) - 30.59 (inHg)
Visibilidad 6.2 (milla) - 10 (km)
Aeropuerto
Código de aeropuerto EDDM

localidad: Munich Airport
Distancia: 73 (km)

Metar:
EDDM 060320Z AUTO VRB01KT 9999 FEW025 M04/M05 Q1036 NOSIG

Hora: 06-02-2023 04:20 CET